Time;durP1;ratioP1;P1;durP2;ratioP2;P2;SDS_P1;SDS_P2;PMS_P1;PMS_P2;Temp;Humidity;BMP_temperature;BMP_pressure;BME280_temperature;BME280_humidity;BME280_pressure;Samples;Min_cycle;Max_cycle;Signal;HPM_P1;HPM_P2
2024/03/22 00:02:02;;;;;;;14.05;11.57;;;9.20;99.90;;;;;;5072794;28;20246;-59
2024/03/22 00:04:29;;;;;;;16.60;13.13;;;9.20;99.90;;;;;;5072897;28;20566;-59
2024/03/22 00:06:55;;;;;;;17.00;12.55;;;9.20;99.90;;;;;;5073119;28;20748;-59
2024/03/22 00:09:21;;;;;;;22.90;13.83;;;9.20;99.90;;;;;;5073363;28;20201;-59
2024/03/22 00:11:47;;;;;;;21.02;14.20;;;9.30;99.90;;;;;;5073094;28;20238;-58
2024/03/22 00:14:15;;;;;;;19.57;14.47;;;9.30;99.90;;;;;;5073105;28;20196;-58
2024/03/22 00:16:41;;;;;;;18.70;14.07;;;9.30;99.90;;;;;;5072915;28;20224;-58
2024/03/22 00:19:08;;;;;;;21.27;14.03;;;9.30;99.90;;;;;;5072587;28;20197;-59
2024/03/22 00:21:33;;;;;;;16.20;12.57;;;9.30;99.90;;;;;;5072946;28;20690;-58
2024/03/22 00:24:01;;;;;;;21.50;14.50;;;9.40;99.90;;;;;;5073621;28;20199;-58
2024/03/22 00:26:26;;;;;;;20.90;14.93;;;9.40;99.90;;;;;;5073089;28;20196;-59
2024/03/22 00:28:53;;;;;;;17.03;14.17;;;9.40;99.90;;;;;;5074684;28;20203;-59
2024/03/22 00:31:20;;;;;;;18.40;15.57;;;9.40;99.90;;;;;;5077130;28;20485;-59
2024/03/22 00:33:47;;;;;;;18.67;14.90;;;9.40;99.90;;;;;;5077167;28;20470;-58
2024/03/22 00:36:13;;;;;;;18.63;14.68;;;9.40;99.90;;;;;;5076692;28;20223;-59
2024/03/22 00:38:39;;;;;;;22.87;17.30;;;9.40;99.90;;;;;;5077132;28;20193;-59
2024/03/22 00:41:06;;;;;;;19.20;15.60;;;9.40;99.90;;;;;;5076573;28;20197;-58
2024/03/22 00:43:33;;;;;;;23.50;17.15;;;9.40;99.90;;;;;;5076488;28;20482;-59
2024/03/22 00:46:00;;;;;;;26.55;17.33;;;9.40;99.90;;;;;;5076071;28;20201;-58
2024/03/22 00:48:28;;;;;;;26.25;18.10;;;9.50;99.90;;;;;;5078467;28;20196;-58
2024/03/22 00:50:55;;;;;;;26.05;18.27;;;9.50;99.90;;;;;;5079732;28;20208;-59
2024/03/22 00:53:20;;;;;;;26.55;18.45;;;9.50;99.90;;;;;;5079862;28;20674;-57
2024/03/22 00:55:50;;;;;;;25.17;17.43;;;9.50;99.90;;;;;;5076851;28;20216;-58
2024/03/22 00:58:18;;;;;;;27.37;17.97;;;9.50;99.90;;;;;;5077188;28;20189;-57
2024/03/22 01:00:44;;;;;;;25.90;18.50;;;9.60;99.90;;;;;;5076457;28;20489;-57
2024/03/22 01:03:10;;;;;;;25.63;18.83;;;9.60;99.90;;;;;;5075813;28;20988;-59
2024/03/22 01:05:39;;;;;;;28.43;21.07;;;9.60;99.90;;;;;;5076623;28;20437;-57
2024/03/22 01:08:06;;;;;;;30.00;20.07;;;9.60;99.90;;;;;;5075898;28;20443;-59
2024/03/22 01:10:34;;;;;;;30.67;21.70;;;9.70;99.90;;;;;;5075973;28;20439;-58
2024/03/22 01:13:00;;;;;;;29.97;20.90;;;9.70;99.90;;;;;;5075948;28;20465;-58
2024/03/22 01:15:27;;;;;;;28.92;22.20;;;9.70;99.90;;;;;;5075662;28;20497;-59
2024/03/22 01:17:53;;;;;;;29.77;22.50;;;9.80;99.90;;;;;;5076540;28;20201;-58
2024/03/22 01:20:20;;;;;;;32.60;23.93;;;9.80;99.90;;;;;;5076221;28;20474;-57
2024/03/22 01:22:47;;;;;;;29.97;21.50;;;9.80;99.90;;;;;;5076250;28;20451;-59
2024/03/22 01:25:14;;;;;;;37.60;24.30;;;9.90;99.90;;;;;;5076088;28;20435;-60
2024/03/22 01:27:39;;;;;;;36.13;23.97;;;9.90;99.90;;;;;;5075925;28;20811;-58
2024/03/22 01:30:07;;;;;;;27.50;21.60;;;9.90;99.90;;;;;;5075571;28;20438;-57
2024/03/22 01:32:34;;;;;;;30.53;22.20;;;10.00;99.90;;;;;;5077222;28;20242;-59
2024/03/22 01:35:00;;;;;;;37.50;24.87;;;10.00;99.90;;;;;;5081769;28;20449;-58
2024/03/22 01:37:26;;;;;;;33.77;23.97;;;10.00;99.90;;;;;;5077611;28;20838;-59
2024/03/22 01:39:54;;;;;;;31.50;23.60;;;10.10;99.90;;;;;;5077134;28;20526;-59
2024/03/22 01:42:20;;;;;;;31.37;22.07;;;10.10;99.90;;;;;;5077313;28;20225;-58
2024/03/22 01:44:47;;;;;;;35.13;23.20;;;10.10;99.90;;;;;;5077589;28;20470;-58
2024/03/22 01:47:12;;;;;;;33.87;23.90;;;10.10;99.90;;;;;;5077809;28;20197;-59
2024/03/22 01:49:40;;;;;;;34.77;25.17;;;10.10;99.90;;;;;;5077876;28;20455;-59
2024/03/22 01:52:06;;;;;;;34.03;22.73;;;10.10;99.90;;;;;;5078354;28;20710;-59
2024/03/22 01:54:32;;;;;;;36.03;23.77;;;10.20;99.90;;;;;;5078758;28;20450;-59
2024/03/22 01:57:01;;;;;;;34.93;24.97;;;10.10;99.90;;;;;;5077517;28;20220;-59
2024/03/22 01:59:29;;;;;;;29.37;22.00;;;10.10;99.90;;;;;;5078225;28;20474;-58
2024/03/22 02:01:55;;;;;;;33.20;24.13;;;10.10;99.90;;;;;;5079804;28;20474;-59
2024/03/22 02:04:22;;;;;;;33.33;24.87;;;10.20;99.90;;;;;;5081137;28;20442;-60
2024/03/22 02:06:48;;;;;;;31.57;22.43;;;10.20;99.90;;;;;;5080846;28;20199;-58
2024/03/22 02:09:16;;;;;;;37.80;23.90;;;10.20;99.90;;;;;;5080428;28;20812;-58
2024/03/22 02:11:42;;;;;;;34.27;23.50;;;10.20;99.90;;;;;;5081979;28;20221;-59
2024/03/22 02:14:10;;;;;;;36.53;22.70;;;10.20;99.90;;;;;;5079807;28;20436;-59
2024/03/22 02:16:36;;;;;;;30.73;22.83;;;10.20;99.90;;;;;;5080300;28;20486;-59
2024/03/22 02:19:03;;;;;;;32.30;22.80;;;10.20;99.90;;;;;;5079375;28;20465;-58
2024/03/22 02:21:28;;;;;;;32.73;23.97;;;10.20;99.90;;;;;;5079530;28;20220;-59
2024/03/22 02:23:57;;;;;;;31.30;22.63;;;10.20;99.90;;;;;;5079639;28;20446;-59
2024/03/22 02:26:22;;;;;;;32.03;22.07;;;10.20;99.90;;;;;;5077607;28;20193;-58
2024/03/22 02:28:49;;;;;;;32.97;23.23;;;10.20;99.90;;;;;;5075629;28;20466;-59
2024/03/22 02:31:15;;;;;;;34.23;23.13;;;10.10;99.90;;;;;;5075486;28;20225;-59
2024/03/22 02:33:42;;;;;;;35.87;24.40;;;10.10;99.90;;;;;;5076743;28;20443;-59
2024/03/22 02:36:08;;;;;;;31.37;21.20;;;10.10;99.90;;;;;;5077979;28;20225;-59
2024/03/22 02:38:35;;;;;;;32.33;21.43;;;10.10;99.90;;;;;;5078337;28;20439;-59
2024/03/22 02:41:02;;;;;;;35.40;23.27;;;10.10;99.90;;;;;;5076456;28;20949;-60
2024/03/22 02:43:28;;;;;;;33.27;22.27;;;10.00;99.90;;;;;;5075222;28;20449;-59
2024/03/22 02:45:55;;;;;;;35.10;23.70;;;10.10;99.90;;;;;;5074850;28;20439;-59
2024/03/22 02:48:21;;;;;;;32.57;23.13;;;10.00;99.90;;;;;;5074691;28;20526;-59
2024/03/22 02:50:47;;;;;;;31.63;22.47;;;10.00;99.90;;;;;;5074442;28;20439;-59
2024/03/22 02:53:14;;;;;;;37.83;25.07;;;10.00;99.90;;;;;;5074695;28;20465;-60
2024/03/22 02:55:40;;;;;;;33.23;23.27;;;10.00;99.90;;;;;;5075377;28;20201;-57
2024/03/22 02:58:09;;;;;;;34.10;23.70;;;10.00;99.90;;;;;;5075897;28;20443;-59
2024/03/22 03:00:36;;;;;;;35.77;23.83;;;10.00;99.90;;;;;;5076024;28;20454;-58
2024/03/22 03:03:03;;;;;;;37.73;24.80;;;10.10;99.90;;;;;;5098589;22;20492;-63
2024/03/22 03:05:29;;;;;;;32.67;21.67;;;10.10;99.90;;;;;;5074861;28;20455;-61
2024/03/22 03:07:56;;;;;;;35.63;24.27;;;10.10;99.90;;;;;;5075601;28;20438;-61
2024/03/22 03:10:21;;;;;;;39.10;26.57;;;10.10;99.90;;;;;;5075569;28;20435;-61
2024/03/22 03:12:48;;;;;;;39.53;25.50;;;10.10;99.90;;;;;;5088034;28;20466;-61
2024/03/22 03:15:16;;;;;;;45.83;26.20;;;10.10;99.90;;;;;;5094200;28;20200;-62
2024/03/22 03:17:43;;;;;;;37.67;24.97;;;10.00;99.90;;;;;;5093955;28;21034;-63
2024/03/22 03:20:10;;;;;;;37.90;25.37;;;10.10;99.90;;;;;;5094123;28;20442;-62
2024/03/22 03:22:36;;;;;;;40.23;24.27;;;10.00;99.90;;;;;;5094790;28;20466;-62
2024/03/22 03:25:04;;;;;;;42.50;27.03;;;10.10;99.90;;;;;;5093842;28;20451;-62
2024/03/22 03:27:30;;;;;;;39.73;24.90;;;10.00;99.90;;;;;;5094039;28;20443;-61
2024/03/22 03:29:56;;;;;;;39.00;25.13;;;10.00;99.90;;;;;;5094180;28;20434;-63
2024/03/22 03:32:24;;;;;;;39.23;26.53;;;10.00;99.90;;;;;;5094758;28;20466;-62
2024/03/22 03:34:50;;;;;;;33.93;24.03;;;10.00;99.90;;;;;;5094666;28;20607;-62
2024/03/22 03:37:17;;;;;;;37.00;24.70;;;10.00;99.90;;;;;;5094158;28;20523;-62
2024/03/22 03:39:43;;;;;;;35.40;24.73;;;10.00;99.90;;;;;;5094395;28;20491;-61
2024/03/22 03:42:10;;;;;;;34.13;24.47;;;10.00;99.90;;;;;;5093665;28;20539;-62
2024/03/22 03:44:36;;;;;;;42.17;25.30;;;10.00;99.90;;;;;;5093585;28;20446;-62
2024/03/22 03:47:03;;;;;;;37.60;24.47;;;10.00;99.90;;;;;;5093531;28;20814;-63
2024/03/22 03:49:31;;;;;;;39.00;26.60;;;10.00;99.90;;;;;;5093454;28;20206;-62
2024/03/22 03:51:57;;;;;;;39.93;26.03;;;10.00;99.90;;;;;;5093377;28;20995;-63
2024/03/22 03:54:23;;;;;;;42.60;26.30;;;10.00;99.90;;;;;;5093139;28;20781;-62
2024/03/22 03:56:50;;;;;;;41.07;23.03;;;10.00;99.90;;;;;;5093892;28;20466;-62
2024/03/22 03:59:16;;;;;;;42.10;28.03;;;10.00;99.90;;;;;;5093799;28;20286;-61
2024/03/22 04:01:42;;;;;;;39.43;24.70;;;10.00;99.90;;;;;;5097939;28;20469;-62
2024/03/22 04:04:08;;;;;;;40.17;24.40;;;10.00;99.90;;;;;;5114862;28;20187;-61
2024/03/22 04:06:36;;;;;;;35.40;23.83;;;10.00;99.90;;;;;;5114983;28;20444;-63
2024/03/22 04:09:02;;;;;;;40.97;26.17;;;10.10;99.90;;;;;;5114328;28;20211;-62
2024/03/22 04:13:26;;;;;;;36.97;23.33;;;10.10;99.90;;;;;;5090656;28;20648;-61
2024/03/22 04:15:52;;;;;;;40.47;26.53;;;10.10;99.90;;;;;;5090861;28;20442;-62
2024/03/22 04:18:19;;;;;;;41.13;24.30;;;10.10;99.90;;;;;;5090908;28;20446;-62
2024/03/22 04:20:55;;;;;;;43.03;26.37;;;10.10;99.90;;;;;;5090177;28;20929;-62
2024/03/22 04:23:22;;;;;;;49.00;28.27;;;10.10;99.90;;;;;;5091518;28;20831;-62
2024/03/22 04:25:52;;;;;;;40.33;25.63;;;10.20;99.90;;;;;;5096371;22;20486;-57
2024/03/22 04:28:19;;;;;;;41.07;27.17;;;10.20;99.90;;;;;;5069633;28;20441;-59
2024/03/22 04:30:56;;;;;;;43.33;27.20;;;10.20;99.90;;;;;;5070064;28;20446;-59
2024/03/22 04:33:23;;;;;;;38.00;26.07;;;10.20;99.90;;;;;;5069981;28;20514;-57
2024/03/22 04:35:48;;;;;;;43.30;26.87;;;10.20;99.90;;;;;;5069751;28;20456;-57
2024/03/22 04:38:15;;;;;;;42.60;27.60;;;10.20;99.90;;;;;;5069362;28;20558;-58
2024/03/22 04:40:42;;;;;;;38.17;24.80;;;10.30;99.90;;;;;;5069984;28;20198;-58
2024/03/22 04:43:09;;;;;;;39.20;25.77;;;10.30;99.90;;;;;;5070192;28;20428;-58
2024/03/22 04:45:36;;;;;;;44.87;26.07;;;10.20;99.90;;;;;;5069859;28;20477;-58
2024/03/22 04:48:04;;;;;;;47.73;27.80;;;10.20;99.90;;;;;;5069315;28;20937;-57
2024/03/22 04:50:31;;;;;;;44.13;26.23;;;10.20;99.90;;;;;;5069821;28;20443;-59
2024/03/22 04:52:57;;;;;;;41.97;25.87;;;10.20;99.90;;;;;;5069199;28;21013;-60
2024/03/22 04:55:24;;;;;;;38.33;26.70;;;10.20;99.90;;;;;;5069823;28;20470;-58
2024/03/22 04:57:49;;;;;;;44.70;27.57;;;10.10;99.90;;;;;;5069740;28;20202;-57
2024/03/22 05:00:17;;;;;;;43.87;25.87;;;10.10;99.90;;;;;;5069022;28;20465;-59
2024/03/22 05:02:43;;;;;;;46.37;26.77;;;10.10;99.90;;;;;;5069606;28;20451;-59
2024/03/22 05:05:11;;;;;;;46.83;27.60;;;10.10;99.90;;;;;;5069266;28;20459;-59
2024/03/22 05:07:36;;;;;;;47.93;29.57;;;10.10;99.90;;;;;;5069521;28;20210;-59
2024/03/22 05:10:04;;;;;;;42.60;26.97;;;10.10;99.90;;;;;;5069340;28;20444;-59
2024/03/22 05:12:31;;;;;;;44.13;27.40;;;10.10;99.90;;;;;;5069163;28;20276;-58
2024/03/22 05:14:57;;;;;;;43.47;27.00;;;10.10;99.90;;;;;;5069383;28;20468;-59
2024/03/22 05:17:23;;;;;;;41.17;25.50;;;10.10;99.90;;;;;;5068885;28;20963;-60
2024/03/22 05:19:50;;;;;;;48.60;26.57;;;10.00;99.90;;;;;;5068818;28;20444;-57
2024/03/22 05:22:17;;;;;;;45.43;26.83;;;10.00;99.90;;;;;;5069126;28;20198;-58
2024/03/22 05:24:44;;;;;;;43.90;26.60;;;10.10;99.90;;;;;;5055732;28;20477;-59
2024/03/22 05:27:09;;;;;;;43.17;26.43;;;10.10;99.90;;;;;;5055766;28;20436;-58
2024/03/22 05:29:36;;;;;;;40.50;27.17;;;10.10;99.90;;;;;;5055958;28;20451;-59
2024/03/22 05:32:03;;;;;;;49.00;27.00;;;10.20;99.90;;;;;;5055598;28;20223;-58
2024/03/22 05:34:30;;;;;;;39.27;23.77;;;10.20;99.90;;;;;;5055498;28;20503;-59
2024/03/22 05:36:56;;;;;;;39.67;24.23;;;10.20;99.90;;;;;;5055706;28;20447;-59
2024/03/22 05:39:24;;;;;;;42.63;24.63;;;10.20;99.90;;;;;;5055485;28;20444;-58
2024/03/22 05:41:49;;;;;;;41.30;25.67;;;10.20;99.90;;;;;;5055284;28;20209;-59
2024/03/22 05:44:16;;;;;;;40.03;24.67;;;10.20;99.90;;;;;;5055766;28;20457;-59
2024/03/22 05:46:42;;;;;;;43.57;25.80;;;10.30;99.90;;;;;;5055187;28;20197;-60
2024/03/22 05:49:09;;;;;;;38.50;25.10;;;10.30;99.90;;;;;;5055417;28;20437;-59
2024/03/22 05:51:35;;;;;;;39.10;26.17;;;10.30;99.90;;;;;;5055031;28;20229;-59
2024/03/22 05:54:02;;;;;;;36.13;22.80;;;10.40;99.90;;;;;;5054996;28;20484;-59
2024/03/22 05:56:30;;;;;;;43.13;25.93;;;10.40;99.90;;;;;;5055319;28;20951;-59
2024/03/22 05:58:56;;;;;;;40.03;25.23;;;10.40;99.90;;;;;;5054845;28;20446;-59
2024/03/22 06:01:23;;;;;;;40.97;26.40;;;10.50;99.90;;;;;;5054782;28;20451;-59
2024/03/22 06:03:48;;;;;;;41.37;25.50;;;10.50;99.90;;;;;;5055091;28;20217;-59
2024/03/22 06:06:16;;;;;;;38.80;23.80;;;10.50;99.90;;;;;;5055193;28;20519;-59
2024/03/22 06:08:43;;;;;;;39.37;23.47;;;10.50;99.90;;;;;;5055231;28;20202;-60
2024/03/22 06:11:10;;;;;;;39.73;23.27;;;10.60;99.90;;;;;;5054873;28;20534;-59
2024/03/22 06:13:37;;;;;;;43.30;24.30;;;10.60;99.90;;;;;;5054632;28;20849;-59
2024/03/22 06:16:05;;;;;;;38.10;23.53;;;10.60;99.90;;;;;;5054184;28;20475;-59
2024/03/22 06:18:30;;;;;;;38.07;23.77;;;10.70;99.90;;;;;;5054054;28;20436;-59
2024/03/22 06:20:57;;;;;;;40.57;23.20;;;10.70;99.90;;;;;;5054314;28;20515;-60
2024/03/22 06:23:23;;;;;;;35.80;23.30;;;10.70;99.90;;;;;;5054462;28;20572;-59
2024/03/22 06:25:53;;;;;;;37.50;24.37;;;10.70;99.90;;;;;;5054142;28;20470;-58
2024/03/22 06:28:19;;;;;;;33.43;20.97;;;10.80;99.90;;;;;;5054398;28;20632;-58
2024/03/22 06:30:47;;;;;;;41.13;22.80;;;10.80;99.90;;;;;;5054295;28;20923;-60
2024/03/22 06:33:13;;;;;;;40.30;23.47;;;10.80;99.90;;;;;;5057380;28;20483;-58
2024/03/22 06:35:40;;;;;;;38.73;21.70;;;10.80;99.90;;;;;;5053080;28;20488;-59
2024/03/22 06:38:07;;;;;;;42.90;23.87;;;10.90;99.90;;;;;;5054229;28;20438;-59
2024/03/22 06:40:33;;;;;;;42.23;23.80;;;10.90;99.90;;;;;;5054261;28;20473;-59
2024/03/22 06:42:59;;;;;;;37.67;22.60;;;11.00;99.90;;;;;;5054993;28;20473;-60
2024/03/22 06:45:25;;;;;;;37.40;24.75;;;11.00;99.90;;;;;;5053779;28;20438;-59
2024/03/22 06:47:53;;;;;;;37.07;24.17;;;11.10;99.90;;;;;;5055041;28;20285;-60
2024/03/22 06:50:23;;;;;;;34.40;22.70;;;11.10;99.90;;;;;;5054128;28;20440;-62
2024/03/22 06:52:51;;;;;;;37.40;22.67;;;11.20;99.90;;;;;;5056146;28;20527;-61
2024/03/22 06:55:16;;;;;;;32.20;21.83;;;11.20;99.90;;;;;;5056869;28;20463;-59
2024/03/22 06:57:44;;;;;;;34.13;21.60;;;11.30;99.90;;;;;;5057394;28;20473;-60
2024/03/22 07:00:13;;;;;;;35.87;22.17;;;11.30;99.90;;;;;;5056835;28;20450;-60
2024/03/22 07:02:40;;;;;;;34.27;20.63;;;11.40;99.90;;;;;;5056529;28;20443;-59
2024/03/22 07:05:08;;;;;;;38.17;22.40;;;11.40;99.90;;;;;;5055950;28;20521;-61
2024/03/22 07:07:35;;;;;;;30.17;20.20;;;11.50;99.90;;;;;;5055317;28;20442;-61
2024/03/22 07:10:01;;;;;;;37.37;21.80;;;11.60;99.90;;;;;;5054295;28;20439;-61
2024/03/22 07:12:28;;;;;;;31.13;19.60;;;11.70;99.90;;;;;;5053862;28;20515;-60
2024/03/22 07:14:55;;;;;;;30.53;20.73;;;11.80;99.90;;;;;;5054011;28;20460;-61
2024/03/22 07:17:24;;;;;;;29.90;19.70;;;11.90;99.90;;;;;;5053673;28;20450;-62
2024/03/22 07:19:50;;;;;;;36.53;21.63;;;12.10;99.90;;;;;;5053366;28;20817;-61
2024/03/22 07:22:19;;;;;;;30.30;19.17;;;12.20;99.90;;;;;;5053660;28;20527;-61
2024/03/22 07:24:45;;;;;;;30.33;19.60;;;12.30;99.90;;;;;;5054693;28;21012;-60
2024/03/22 07:27:11;;;;;;;25.57;18.33;;;12.40;99.90;;;;;;5053670;28;20443;-61
2024/03/22 07:29:37;;;;;;;31.30;20.50;;;12.50;99.90;;;;;;5053618;28;20542;-61
2024/03/22 07:32:05;;;;;;;32.67;19.97;;;12.50;99.90;;;;;;5054548;28;20571;-61
2024/03/22 07:34:31;;;;;;;25.93;19.53;;;12.60;99.90;;;;;;5054179;28;20986;-60
2024/03/22 07:36:58;;;;;;;27.70;18.33;;;12.60;99.90;;;;;;5053812;28;20520;-62
2024/03/22 07:39:25;;;;;;;27.07;18.30;;;12.60;99.90;;;;;;5053179;28;20439;-60
2024/03/22 07:41:52;;;;;;;26.13;18.40;;;12.60;99.90;;;;;;5053382;28;20448;-61
2024/03/22 07:44:19;;;;;;;27.10;17.50;;;12.70;99.90;;;;;;5052958;28;20467;-61
2024/03/22 07:46:46;;;;;;;30.10;17.83;;;12.70;99.90;;;;;;5052985;28;20538;-62
2024/03/22 07:49:12;;;;;;;26.67;18.00;;;12.80;99.90;;;;;;5053261;28;20444;-61
2024/03/22 07:51:39;;;;;;;29.33;18.43;;;12.80;99.90;;;;;;5052662;28;20439;-60
2024/03/22 07:54:05;;;;;;;29.67;19.07;;;12.80;99.90;;;;;;5052715;28;20467;-61
2024/03/22 07:56:33;;;;;;;26.07;18.63;;;12.80;99.90;;;;;;5052604;28;20441;-61
2024/03/22 07:59:00;;;;;;;27.77;18.70;;;12.80;99.90;;;;;;5052815;28;20439;-62
2024/03/22 08:01:27;;;;;;;22.50;16.20;;;12.80;99.90;;;;;;5052145;28;20925;-61
2024/03/22 08:03:53;;;;;;;29.13;17.50;;;12.80;99.90;;;;;;5052318;28;20442;-60
2024/03/22 08:06:20;;;;;;;31.40;17.77;;;12.80;99.90;;;;;;5052865;28;20845;-61
2024/03/22 08:08:45;;;;;;;29.37;18.30;;;12.80;99.90;;;;;;5052318;28;20447;-60
2024/03/22 08:11:12;;;;;;;25.10;17.07;;;12.80;99.90;;;;;;5052761;28;20440;-61
2024/03/22 08:13:39;;;;;;;24.90;17.50;;;12.80;99.90;;;;;;5052745;28;20233;-61
2024/03/22 08:16:06;;;;;;;25.80;16.80;;;12.80;99.90;;;;;;5052671;28;20476;-61
2024/03/22 08:18:32;;;;;;;25.30;17.97;;;12.90;99.90;;;;;;5052824;28;20445;-60
2024/03/22 08:20:59;;;;;;;26.23;18.97;;;12.90;99.90;;;;;;5053603;28;20436;-60
2024/03/22 08:23:25;;;;;;;21.60;15.60;;;13.00;99.90;;;;;;5053178;28;20450;-60
2024/03/22 08:25:52;;;;;;;22.67;16.60;;;13.10;99.90;;;;;;5052367;28;21035;-60
2024/03/22 08:28:18;;;;;;;25.20;17.07;;;13.10;99.90;;;;;;5052751;28;20247;-60
2024/03/22 08:30:46;;;;;;;22.70;15.77;;;13.20;99.90;;;;;;5052760;28;20449;-61
2024/03/22 08:33:12;;;;;;;22.80;15.70;;;13.30;99.90;;;;;;5052843;28;20566;-61
2024/03/22 08:35:39;;;;;;;23.70;16.00;;;13.30;99.90;;;;;;5052539;28;20471;-61
2024/03/22 08:38:09;;;;;;;23.57;16.90;;;13.30;99.90;;;;;;5052599;28;20210;-61
2024/03/22 08:40:36;;;;;;;24.03;16.87;;;13.40;99.90;;;;;;5052153;28;20428;-62
2024/03/22 08:43:03;;;;;;;21.23;15.47;;;13.40;99.90;;;;;;5052633;28;20541;-62
2024/03/22 08:45:30;;;;;;;22.07;15.50;;;13.40;99.90;;;;;;5052556;28;20953;-61
2024/03/22 08:47:57;;;;;;;21.40;15.70;;;13.40;99.90;;;;;;5052754;28;20442;-60
2024/03/22 08:50:23;;;;;;;24.27;17.07;;;13.40;99.90;;;;;;5052690;28;20466;-60
2024/03/22 08:52:50;;;;;;;21.50;16.27;;;13.40;99.90;;;;;;5052752;28;20587;-61
2024/03/22 08:55:17;;;;;;;21.87;16.10;;;13.40;99.90;;;;;;5052423;28;20558;-61
2024/03/22 08:57:43;;;;;;;22.33;16.17;;;13.30;99.90;;;;;;5052714;28;20202;-61
2024/03/22 09:00:11;;;;;;;20.80;16.20;;;13.30;99.90;;;;;;5056842;28;20451;-61
2024/03/22 09:02:37;;;;;;;20.63;15.57;;;13.20;99.90;;;;;;5056638;28;20433;-61
2024/03/22 09:05:07;;;;;;;19.20;15.67;;;13.20;99.90;;;;;;5056369;28;20966;-60
2024/03/22 09:07:32;;;;;;;17.53;13.53;;;13.20;99.90;;;;;;5056286;28;20440;-61
2024/03/22 09:09:59;;;;;;;22.60;14.97;;;13.10;99.90;;;;;;5056142;28;20440;-60
2024/03/22 09:12:25;;;;;;;21.83;15.70;;;13.10;99.90;;;;;;5055714;28;20236;-61
2024/03/22 09:14:51;;;;;;;23.67;16.53;;;13.10;99.90;;;;;;5055113;28;20467;-60
2024/03/22 09:17:17;;;;;;;20.87;15.80;;;13.10;99.90;;;;;;5055456;28;20207;-61
2024/03/22 09:19:44;;;;;;;20.10;14.03;;;13.20;99.90;;;;;;5055726;28;20451;-62
2024/03/22 09:22:12;;;;;;;19.97;15.07;;;13.20;99.90;;;;;;5056172;28;20198;-62
2024/03/22 09:24:38;;;;;;;26.57;15.37;;;13.20;99.90;;;;;;5055732;28;20480;-62
2024/03/22 09:27:08;;;;;;;19.07;14.57;;;13.20;99.90;;;;;;5055641;28;20448;-60
2024/03/22 09:29:35;;;;;;;19.90;15.20;;;13.20;99.90;;;;;;5055935;28;20467;-62
2024/03/22 09:32:01;;;;;;;24.80;16.67;;;13.30;99.90;;;;;;5055367;28;20451;-63
2024/03/22 09:34:28;;;;;;;19.27;13.10;;;13.30;99.90;;;;;;5054981;28;20466;-61
2024/03/22 09:36:54;;;;;;;17.87;13.80;;;13.30;99.90;;;;;;5055132;28;20704;-62
2024/03/22 09:39:22;;;;;;;18.77;13.63;;;13.40;99.90;;;;;;5055211;28;20444;-62
2024/03/22 09:41:48;;;;;;;17.77;12.77;;;13.40;99.90;;;;;;5055310;28;20206;-62
2024/03/22 09:44:18;;;;;;;17.87;13.37;;;13.40;99.90;;;;;;5055143;28;20483;-61
2024/03/22 09:46:46;;;;;;;18.63;13.07;;;13.40;99.90;;;;;;5055843;28;20902;-61
2024/03/22 09:49:13;;;;;;;18.30;12.90;;;13.50;99.90;;;;;;5055196;28;20440;-62
2024/03/22 09:51:39;;;;;;;18.40;13.73;;;13.60;99.90;;;;;;5055216;28;20448;-62
2024/03/22 09:54:06;;;;;;;18.00;12.73;;;13.70;99.90;;;;;;5055267;28;20481;-62
2024/03/22 09:56:35;;;;;;;17.57;12.23;;;13.70;99.90;;;;;;5056019;28;20207;-62
2024/03/22 09:59:02;;;;;;;18.57;12.30;;;13.70;99.90;;;;;;5055606;28;20902;-60
2024/03/22 10:01:28;;;;;;;21.03;13.30;;;13.70;99.90;;;;;;5056058;28;20451;-61
2024/03/22 10:03:56;;;;;;;17.10;13.00;;;13.70;99.90;;;;;;5056391;28;20457;-60
2024/03/22 10:06:22;;;;;;;17.00;12.27;;;13.80;99.90;;;;;;5056102;28;20445;-61
2024/03/22 10:08:49;;;;;;;14.17;11.70;;;13.90;99.90;;;;;;5054782;28;20813;-61
2024/03/22 10:11:15;;;;;;;20.33;13.20;;;14.00;99.90;;;;;;5054782;28;20461;-61
2024/03/22 10:13:44;;;;;;;16.00;11.67;;;14.10;99.90;;;;;;5054837;28;20475;-61
2024/03/22 10:16:09;;;;;;;16.03;12.53;;;14.20;99.90;;;;;;5054863;28;20219;-61
2024/03/22 10:18:37;;;;;;;16.10;12.40;;;14.30;99.90;;;;;;5055062;28;20818;-61
2024/03/22 10:21:04;;;;;;;15.00;11.90;;;14.30;99.90;;;;;;5054160;28;20216;-62
2024/03/22 10:23:31;;;;;;;14.13;11.27;;;14.40;99.90;;;;;;5054434;28;20857;-60
2024/03/22 10:25:57;;;;;;;15.50;12.57;;;14.40;99.80;;;;;;5054359;28;20840;-60
2024/03/22 10:28:24;;;;;;;16.67;12.10;;;14.40;99.40;;;;;;5054854;28;20450;-60
2024/03/22 10:30:52;;;;;;;17.27;12.23;;;14.50;99.00;;;;;;5054921;28;20454;-60
2024/03/22 10:33:22;;;;;;;17.53;13.70;;;14.50;98.40;;;;;;5055143;28;20475;-61
2024/03/22 10:35:51;;;;;;;15.33;12.23;;;14.50;97.80;;;;;;5054540;28;20470;-60
2024/03/22 10:38:20;;;;;;;17.43;13.27;;;14.50;97.60;;;;;;5054794;28;20451;-60
2024/03/22 10:40:46;;;;;;;15.40;12.50;;;14.40;97.40;;;;;;5055874;28;20827;-60
2024/03/22 10:43:13;;;;;;;20.67;13.00;;;14.40;97.20;;;;;;5053945;28;20948;-60
2024/03/22 10:45:40;;;;;;;17.93;14.30;;;14.30;97.20;;;;;;5053568;28;20475;-61
2024/03/22 10:48:11;;;;;;;17.97;14.47;;;14.30;97.40;;;;;;5054162;28;20439;-60
2024/03/22 10:50:39;;;;;;;19.47;14.13;;;14.20;98.50;;;;;;5054062;28;20457;-60
2024/03/22 10:53:09;;;;;;;19.20;13.60;;;13.90;99.90;;;;;;5053638;28;20855;-60
2024/03/22 10:55:38;;;;;;;17.87;14.47;;;13.80;99.90;;;;;;5054141;28;20466;-60
2024/03/22 10:58:05;;;;;;;23.00;14.87;;;13.90;99.90;;;;;;5053624;28;20450;-60
2024/03/22 11:00:33;;;;;;;15.93;12.40;;;13.90;99.90;;;;;;5053670;28;20450;-60
2024/03/22 11:03:00;;;;;;;19.83;13.30;;;14.00;99.90;;;;;;5053762;28;21034;-60
2024/03/22 11:05:27;;;;;;;17.20;13.33;;;14.10;99.90;;;;;;5053205;28;21015;-60
2024/03/22 11:08:00;;;;;;;19.67;12.27;;;14.20;99.90;;;;;;5054063;28;20454;-61
2024/03/22 11:10:30;;;;;;;15.33;12.43;;;14.30;99.90;;;;;;5053409;28;20936;-61
2024/03/22 11:12:56;;;;;;;18.07;12.33;;;14.50;99.90;;;;;;5053309;28;21004;-60
2024/03/22 11:15:22;;;;;;;18.40;14.00;;;14.50;99.70;;;;;;5053378;28;20581;-61
2024/03/22 11:17:49;;;;;;;18.67;12.87;;;14.60;99.20;;;;;;5053910;28;20440;-61
2024/03/22 11:20:15;;;;;;;17.87;13.23;;;14.60;98.00;;;;;;5053965;28;20210;-60
2024/03/22 11:22:43;;;;;;;20.10;12.47;;;14.50;96.80;;;;;;5052726;28;20807;-60
2024/03/22 11:25:09;;;;;;;15.00;12.10;;;14.50;96.60;;;;;;5053601;28;20907;-61
2024/03/22 11:27:36;;;;;;;13.27;11.37;;;14.50;96.00;;;;;;5053655;28;20449;-60
2024/03/22 11:30:03;;;;;;;14.93;11.70;;;14.50;95.90;;;;;;5054113;28;20442;-60
2024/03/22 11:32:30;;;;;;;16.97;12.30;;;14.50;95.80;;;;;;5053230;28;20537;-63
2024/03/22 11:34:56;;;;;;;16.63;11.57;;;14.50;95.70;;;;;;5053715;28;20486;-61
2024/03/22 11:37:23;;;;;;;15.10;12.97;;;14.50;95.50;;;;;;5053237;28;20450;-60
2024/03/22 11:39:50;;;;;;;16.80;13.07;;;14.50;95.60;;;;;;5053469;28;20447;-60
2024/03/22 11:42:18;;;;;;;17.57;11.57;;;14.50;95.60;;;;;;5053249;28;20478;-59
2024/03/22 11:44:44;;;;;;;18.73;13.17;;;14.40;95.20;;;;;;5053172;28;20467;-61
2024/03/22 11:47:10;;;;;;;16.90;12.50;;;14.30;95.20;;;;;;5053291;28;20443;-60
2024/03/22 11:49:36;;;;;;;17.30;12.30;;;14.30;95.30;;;;;;5053076;28;20442;-61
2024/03/22 11:52:03;;;;;;;17.83;11.90;;;14.30;95.40;;;;;;5053757;28;20445;-60
2024/03/22 11:54:30;;;;;;;16.37;11.07;;;14.20;95.50;;;;;;5052463;28;21026;-61
2024/03/22 11:56:58;;;;;;;15.30;11.57;;;14.20;95.50;;;;;;5052914;28;20457;-61
2024/03/22 11:59:24;;;;;;;15.70;12.80;;;14.20;95.60;;;;;;5054353;28;20469;-61
2024/03/22 12:01:51;;;;;;;20.33;13.40;;;14.20;95.60;;;;;;5054213;28;20904;-60
2024/03/22 12:04:17;;;;;;;16.77;12.57;;;14.30;95.60;;;;;;5054551;28;20233;-60
2024/03/22 12:06:44;;;;;;;16.17;12.23;;;14.30;95.50;;;;;;5054154;28;20472;-60
2024/03/22 12:09:12;;;;;;;17.97;12.37;;;14.20;95.50;;;;;;5054884;28;20204;-61
2024/03/22 12:11:39;;;;;;;17.10;13.00;;;14.20;95.60;;;;;;5056096;28;20450;-61
2024/03/22 12:14:06;;;;;;;18.80;14.03;;;14.10;95.80;;;;;;5053363;28;20493;-61
2024/03/22 12:16:33;;;;;;;15.83;12.77;;;14.10;96.10;;;;;;5052860;28;20506;-60
2024/03/22 12:18:59;;;;;;;19.93;14.00;;;14.00;96.50;;;;;;5053804;28;20508;-61
2024/03/22 12:21:26;;;;;;;18.10;13.00;;;14.10;96.80;;;;;;5052328;28;20955;-60
2024/03/22 12:23:52;;;;;;;19.13;14.07;;;14.10;96.80;;;;;;5052515;28;20447;-60
2024/03/22 12:26:19;;;;;;;21.00;14.23;;;14.10;96.90;;;;;;5053702;28;20433;-61
2024/03/22 12:28:45;;;;;;;19.00;14.10;;;14.10;97.10;;;;;;5053143;28;20709;-60